Beeville, Texas
Current Conditions -  °F | °C
As of 8:35 AM on Saturday 25 Oct 2014 (Local Time) from KBEA Reporting Station
Clear Clear  
Wind Chill: 65°   Ceiling: Unl
Heat Index: 65°   Visibility: 10mi
Dew Point: 60°   Wind: 5mph
Humidity: 83%   Direction: 330°NNW
Pressure: 30.16"   Gusts: NA
Location:  28.4°N, 97.75°W
Report Text: KBEA 251335Z AUTO 33004KT 10SM CLR 19/16 A3016 RMK AO2 T01850155
Loading
Personal Weather Stations






























Interactive Weather Map
Tropical Storm Tracking
New forecast layout! Learn more

10-Day Weather Forecast

Advertisements
Track Severe Weather on mobile